createdAt,value
2017-10-12T00:00:18.171Z,0
2017-10-12T00:01:20.544Z,0
2017-10-12T00:02:22.923Z,0
2017-10-12T00:03:25.303Z,0
2017-10-12T00:04:28.044Z,0
2017-10-12T00:05:30.421Z,0
2017-10-12T00:06:32.797Z,0
2017-10-12T00:07:35.524Z,0
2017-10-12T00:08:37.896Z,0
2017-10-12T00:09:40.258Z,0
2017-10-12T00:10:42.642Z,0
2017-10-12T00:11:45.022Z,0
2017-10-12T00:12:47.404Z,0
2017-10-12T00:13:49.790Z,0
2017-10-12T00:14:52.163Z,0
2017-10-12T00:15:54.546Z,0
2017-10-12T00:16:56.932Z,0
2017-10-12T00:17:59.311Z,0
2017-10-12T00:19:01.687Z,0
2017-10-12T00:20:04.061Z,0
2017-10-12T00:21:06.448Z,0
2017-10-12T00:22:08.829Z,0
2017-10-12T00:23:11.208Z,0
2017-10-12T00:24:13.581Z,0
2017-10-12T00:25:15.959Z,0
2017-10-12T00:26:18.700Z,0
2017-10-12T00:27:21.078Z,0
2017-10-12T00:28:23.454Z,0
2017-10-12T00:29:26.182Z,0
2017-10-12T00:30:28.574Z,0
2017-10-12T00:31:30.939Z,0
2017-10-12T00:32:33.325Z,0
2017-10-12T00:33:35.705Z,0
2017-10-12T00:34:38.078Z,0
2017-10-12T00:35:40.455Z,0
2017-10-12T00:36:42.835Z,0
2017-10-12T00:37:45.553Z,0
2017-10-12T00:38:47.936Z,0
2017-10-12T00:39:50.320Z,0
2017-10-12T00:40:52.699Z,0
2017-10-12T00:41:55.085Z,0
2017-10-12T00:42:57.462Z,0
2017-10-12T00:44:00.210Z,0
2017-10-12T00:45:02.582Z,0
2017-10-12T00:46:04.973Z,0
2017-10-12T00:47:07.347Z,0
2017-10-12T00:48:09.732Z,0
2017-10-12T00:49:12.451Z,0
2017-10-12T00:50:14.833Z,0
2017-10-12T00:51:17.206Z,0
2017-10-12T00:52:19.598Z,0
2017-10-12T00:53:22.314Z,0
2017-10-12T00:54:24.698Z,0
2017-10-12T00:55:27.075Z,0
2017-10-12T00:56:29.457Z,0
2017-10-12T00:57:31.838Z,0
2017-10-12T00:58:34.215Z,0
2017-10-12T00:59:36.598Z,0
2017-10-12T01:00:38.971Z,0
2017-10-12T01:01:41.353Z,0
2017-10-12T01:02:43.731Z,0
2017-10-12T01:03:46.103Z,0
2017-10-12T01:04:48.479Z,0
2017-10-12T01:05:51.199Z,0
2017-10-12T01:06:53.585Z,0
2017-10-12T01:07:56.316Z,0
2017-10-12T01:08:58.698Z,0
2017-10-12T01:10:01.081Z,0
2017-10-12T01:11:03.452Z,0
2017-10-12T01:12:05.853Z,0
2017-10-12T01:13:08.222Z,0
2017-10-12T01:14:10.601Z,0
2017-10-12T01:15:12.985Z,0
2017-10-12T01:16:15.354Z,0
2017-10-12T01:17:17.731Z,0
2017-10-12T01:18:20.468Z,0
2017-10-12T01:19:22.839Z,0
2017-10-12T01:20:25.230Z,0
2017-10-12T01:21:27.605Z,0
2017-10-12T01:22:29.984Z,0
2017-10-12T01:23:32.360Z,0
2017-10-12T01:24:34.745Z,0
2017-10-12T01:25:37.125Z,0
2017-10-12T01:26:39.508Z,0
2017-10-12T01:27:41.876Z,0
2017-10-12T01:28:44.263Z,0
2017-10-12T01:29:46.636Z,0
2017-10-12T01:30:49.013Z,0
2017-10-12T01:31:51.392Z,0
2017-10-12T01:32:53.773Z,0
2017-10-12T01:33:56.144Z,0
2017-10-12T01:34:58.532Z,0
2017-10-12T01:36:00.906Z,0
2017-10-12T01:37:03.288Z,0
2017-10-12T01:38:06.015Z,0
2017-10-12T01:39:08.399Z,0
2017-10-12T01:40:10.768Z,0
2017-10-12T01:41:13.148Z,0
2017-10-12T01:42:15.526Z,0
2017-10-12T01:43:17.903Z,0
2017-10-12T01:44:20.274Z,0
2017-10-12T01:45:22.659Z,0
2017-10-12T01:46:25.043Z,0
2017-10-12T01:47:27.419Z,0
2017-10-12T01:48:29.798Z,0
2017-10-12T01:49:32.180Z,0
2017-10-12T01:50:34.553Z,0
2017-10-12T01:51:37.292Z,0
2017-10-12T01:52:39.656Z,0
2017-10-12T01:53:42.038Z,0
2017-10-12T01:54:44.760Z,0
2017-10-12T01:55:47.136Z,0
2017-10-12T01:56:49.515Z,0
2017-10-12T01:57:51.898Z,0
2017-10-12T01:58:54.260Z,0
2017-10-12T01:59:56.647Z,0
2017-10-12T02:00:59.027Z,0
2017-10-12T02:02:01.408Z,0
2017-10-12T02:03:03.795Z,0
2017-10-12T02:04:06.520Z,0
2017-10-12T02:05:08.895Z,0
2017-10-12T02:06:11.636Z,0
2017-10-12T02:07:14.015Z,0
2017-10-12T02:08:16.382Z,0
2017-10-12T02:09:19.109Z,0
2017-10-12T02:10:21.499Z,0
2017-10-12T02:11:23.871Z,0
2017-10-12T02:12:26.250Z,0
2017-10-12T02:13:28.632Z,0
2017-10-12T02:14:31.007Z,0
2017-10-12T02:15:33.384Z,0
2017-10-12T02:16:35.769Z,0
2017-10-12T02:17:38.131Z,0
2017-10-12T02:18:40.514Z,0
2017-10-12T02:19:42.900Z,0
2017-10-12T02:20:45.274Z,0
2017-10-12T02:21:47.654Z,0
2017-10-12T02:22:50.029Z,0
2017-10-12T02:23:52.410Z,0
2017-10-12T02:24:55.152Z,0
2017-10-12T02:25:57.520Z,0
2017-10-12T02:26:59.893Z,0
2017-10-12T02:28:02.270Z,0
2017-10-12T02:29:04.643Z,0
2017-10-12T02:30:07.021Z,0
2017-10-12T02:31:09.396Z,0
2017-10-12T02:32:11.778Z,0
2017-10-12T02:33:14.150Z,0
2017-10-12T02:34:16.538Z,0
2017-10-12T02:35:18.915Z,0
2017-10-12T02:36:21.287Z,0
2017-10-12T02:37:23.662Z,0
2017-10-12T02:38:26.039Z,0
2017-10-12T02:39:28.419Z,0
2017-10-12T02:40:30.804Z,0
2017-10-12T02:41:33.913Z,0
2017-10-12T02:42:36.298Z,0
2017-10-12T02:43:38.665Z,0
2017-10-12T02:44:41.055Z,0
2017-10-12T02:45:43.435Z,0
2017-10-12T02:46:46.157Z,0
2017-10-12T02:47:48.547Z,0
2017-10-12T02:48:50.917Z,0
2017-10-12T02:49:53.288Z,0
2017-10-12T02:50:55.683Z,0
2017-10-12T02:51:58.049Z,0
2017-10-12T02:53:00.422Z,0
2017-10-12T02:54:03.169Z,0
2017-10-12T02:55:05.889Z,0
2017-10-12T02:56:08.259Z,0
2017-10-12T02:57:10.638Z,0
2017-10-12T02:58:12.998Z,0
2017-10-12T02:59:15.385Z,0
2017-10-12T03:00:18.135Z,0
2017-10-12T03:01:20.516Z,0
2017-10-12T03:02:23.653Z,0
2017-10-12T03:03:26.026Z,0
2017-10-12T03:04:28.405Z,0
2017-10-12T03:05:30.788Z,0
2017-10-12T03:06:33.166Z,0
2017-10-12T03:07:35.549Z,0
2017-10-12T03:08:37.924Z,0
2017-10-12T03:09:40.646Z,0
2017-10-12T03:10:43.021Z,0
2017-10-12T03:11:45.398Z,0
2017-10-12T03:12:47.780Z,0
2017-10-12T03:13:50.154Z,0
2017-10-12T03:14:52.882Z,0
2017-10-12T03:15:55.255Z,0
2017-10-12T03:16:57.644Z,0
2017-10-12T03:18:00.021Z,0
2017-10-12T03:19:02.393Z,0
2017-10-12T03:20:04.778Z,0
2017-10-12T03:21:07.159Z,0
2017-10-12T03:22:09.529Z,0
2017-10-12T03:23:11.913Z,0
2017-10-12T03:24:14.277Z,0
2017-10-12T03:25:17.008Z,0
2017-10-12T03:26:19.740Z,0
2017-10-12T03:27:22.120Z,0
2017-10-12T03:28:24.491Z,0
2017-10-12T03:29:26.873Z,0
2017-10-12T03:30:29.246Z,0
2017-10-12T03:31:31.640Z,0
2017-10-12T03:32:34.012Z,0
2017-10-12T03:33:36.382Z,0
2017-10-12T03:34:38.762Z,0
2017-10-12T03:35:41.513Z,0
2017-10-12T03:36:43.894Z,0
2017-10-12T03:37:46.267Z,0
2017-10-12T03:38:48.650Z,0
2017-10-12T03:39:51.030Z,0
2017-10-12T03:40:53.392Z,0
2017-10-12T03:41:55.773Z,0
2017-10-12T03:42:58.165Z,0
2017-10-12T03:44:00.886Z,0
2017-10-12T03:45:03.265Z,0
2017-10-12T03:46:05.655Z,0
2017-10-12T03:47:08.009Z,0
2017-10-12T03:48:10.754Z,0
2017-10-12T03:49:13.133Z,0
2017-10-12T03:50:15.502Z,0
2017-10-12T03:51:18.257Z,0
2017-10-12T03:52:20.622Z,0
2017-10-12T03:53:23.004Z,0
2017-10-12T03:54:25.379Z,0
2017-10-12T03:55:27.751Z,0
2017-10-12T03:56:30.477Z,0
2017-10-12T03:57:33.213Z,0
2017-10-12T03:58:35.584Z,0
2017-10-12T03:59:38.305Z,0
2017-10-12T04:00:41.045Z,0
2017-10-12T04:01:43.777Z,0
2017-10-12T04:02:46.163Z,0
2017-10-12T04:03:48.540Z,0
2017-10-12T04:04:50.905Z,0
2017-10-12T04:05:53.285Z,0
2017-10-12T04:06:55.678Z,0
2017-10-12T04:07:58.052Z,0
2017-10-12T04:09:00.427Z,0
2017-10-12T04:10:02.800Z,0
2017-10-12T04:11:05.191Z,0
2017-10-12T04:12:07.556Z,0
2017-10-12T04:13:09.941Z,0
2017-10-12T04:14:12.313Z,0
2017-10-12T04:15:14.693Z,0
2017-10-12T04:16:17.081Z,0
2017-10-12T04:17:19.459Z,0
2017-10-12T04:18:21.838Z,0
2017-10-12T04:19:24.227Z,0
2017-10-12T04:20:26.599Z,0
2017-10-12T04:21:28.986Z,0
2017-10-12T04:22:31.360Z,0
2017-10-12T04:23:34.123Z,0
2017-10-12T04:24:36.502Z,0
2017-10-12T04:25:38.882Z,0
2017-10-12T04:26:41.262Z,0
2017-10-12T04:27:43.651Z,0
2017-10-12T04:28:46.010Z,0
2017-10-12T04:29:48.392Z,0
2017-10-12T04:30:50.784Z,0
2017-10-12T04:31:53.156Z,0
2017-10-12T04:32:55.895Z,0
2017-10-12T04:33:58.268Z,0
2017-10-12T04:35:00.642Z,0
2017-10-12T04:36:03.376Z,0
2017-10-12T04:37:05.751Z,0
2017-10-12T04:38:08.130Z,0
2017-10-12T04:39:10.509Z,0
2017-10-12T04:40:12.868Z,0
2017-10-12T04:41:15.610Z,0
2017-10-12T04:42:17.987Z,0
2017-10-12T04:43:20.368Z,0
2017-10-12T04:44:22.743Z,0
2017-10-12T04:45:25.123Z,0
2017-10-12T04:46:27.495Z,0
2017-10-12T04:47:29.876Z,0
2017-10-12T04:48:32.246Z,0
2017-10-12T04:49:34.617Z,0
2017-10-12T04:50:36.999Z,0
2017-10-12T04:51:39.370Z,0
2017-10-12T04:52:41.757Z,0
2017-10-12T04:53:44.492Z,0
2017-10-12T04:54:46.864Z,0
2017-10-12T04:55:49.254Z,0
2017-10-12T04:56:51.625Z,0
2017-10-12T04:57:54.002Z,0
2017-10-12T04:58:56.382Z,0
2017-10-12T04:59:58.762Z,0
2017-10-12T05:01:01.497Z,0
2017-10-12T05:02:04.258Z,0
2017-10-12T05:03:06.625Z,0
2017-10-12T05:04:09.002Z,0
2017-10-12T05:05:11.734Z,0
2017-10-12T05:06:14.460Z,0
2017-10-12T05:07:16.836Z,0
2017-10-12T05:08:19.215Z,0
2017-10-12T05:09:21.591Z,0
2017-10-12T05:10:24.025Z,0
2017-10-12T05:11:26.390Z,0
2017-10-12T05:12:28.774Z,0
2017-10-12T05:13:31.510Z,0
2017-10-12T05:14:34.238Z,0
2017-10-12T05:15:36.616Z,0
2017-10-12T05:16:38.997Z,0
2017-10-12T05:17:41.369Z,0
2017-10-12T05:18:43.750Z,0
2017-10-12T05:19:46.472Z,0
2017-10-12T05:20:48.858Z,0
2017-10-12T05:21:51.229Z,0
2017-10-12T05:22:53.620Z,0
2017-10-12T05:23:56.343Z,0
2017-10-12T05:24:58.726Z,0
2017-10-12T05:26:01.100Z,0
2017-10-12T05:27:03.488Z,0
2017-10-12T05:28:05.861Z,1
2017-10-12T05:29:08.579Z,1
2017-10-12T05:30:11.303Z,1
2017-10-12T05:31:14.031Z,1
2017-10-12T05:32:16.774Z,1
2017-10-12T05:33:19.500Z,1
2017-10-12T05:34:21.871Z,1
2017-10-12T05:35:24.249Z,1
2017-10-12T05:36:26.629Z,1
2017-10-12T05:37:29.003Z,1
2017-10-12T05:38:31.392Z,1
2017-10-12T05:39:33.760Z,2
2017-10-12T05:40:36.134Z,2
2017-10-12T05:41:38.514Z,3
2017-10-12T05:42:40.887Z,3
2017-10-12T05:43:43.276Z,3
2017-10-12T05:44:45.654Z,3
2017-10-12T05:45:48.026Z,4
2017-10-12T05:46:50.419Z,4
2017-10-12T05:47:52.793Z,5
2017-10-12T05:48:55.530Z,5
2017-10-12T05:49:58.261Z,5
2017-10-12T05:51:00.639Z,5
2017-10-12T05:52:03.022Z,5
2017-10-12T05:53:05.402Z,5
2017-10-12T05:54:07.767Z,5
2017-10-12T05:55:10.151Z,6
2017-10-12T05:56:12.869Z,6
2017-10-12T05:57:15.601Z,7
2017-10-12T05:58:17.987Z,7
2017-10-12T05:59:20.357Z,7
2017-10-12T06:00:22.728Z,8
2017-10-12T06:01:25.116Z,8
2017-10-12T06:02:27.494Z,8
2017-10-12T06:03:30.216Z,9
2017-10-12T06:04:32.593Z,9
2017-10-12T06:05:34.977Z,10
2017-10-12T06:06:37.349Z,10
2017-10-12T06:07:39.727Z,10
2017-10-12T06:08:42.103Z,11
2017-10-12T06:09:44.488Z,11
2017-10-12T06:10:46.861Z,12
2017-10-12T06:11:49.249Z,14
2017-10-12T06:12:51.614Z,13
2017-10-12T06:13:53.994Z,14
2017-10-12T06:14:56.375Z,14
2017-10-12T06:15:58.758Z,14
2017-10-12T06:17:01.134Z,15
2017-10-12T06:18:03.871Z,17
2017-10-12T06:19:06.240Z,18
2017-10-12T06:20:08.978Z,18
2017-10-12T06:21:11.354Z,18
2017-10-12T06:22:13.733Z,20
2017-10-12T06:23:16.106Z,21
2017-10-12T06:24:18.494Z,22
2017-10-12T06:25:20.860Z,22
2017-10-12T06:26:23.251Z,23
2017-10-12T06:27:25.619Z,22
2017-10-12T06:28:28.001Z,25
2017-10-12T06:29:30.378Z,24
2017-10-12T06:30:32.758Z,24
2017-10-12T06:31:35.136Z,28
2017-10-12T06:32:37.520Z,27
2017-10-12T06:33:39.897Z,30
2017-10-12T06:34:42.266Z,30
2017-10-12T06:35:44.643Z,29
2017-10-12T06:36:47.030Z,27
2017-10-12T06:37:49.400Z,28
2017-10-12T06:38:51.773Z,29
2017-10-12T06:39:54.155Z,30
2017-10-12T06:40:56.524Z,31
2017-10-12T06:41:58.906Z,31
2017-10-12T06:43:01.644Z,34
2017-10-12T06:44:04.008Z,34
2017-10-12T06:45:06.749Z,32
2017-10-12T06:46:09.141Z,35
2017-10-12T06:47:11.511Z,38
2017-10-12T06:48:13.889Z,36
2017-10-12T06:49:16.263Z,35
2017-10-12T06:50:18.638Z,37
2017-10-12T06:51:21.031Z,39
2017-10-12T06:52:23.404Z,40
2017-10-12T06:53:25.776Z,37
2017-10-12T06:54:28.152Z,37
2017-10-12T06:55:30.529Z,39
2017-10-12T06:56:32.906Z,46
2017-10-12T06:57:35.284Z,47
2017-10-12T06:58:37.655Z,43
2017-10-12T06:59:40.029Z,48
2017-10-12T07:00:42.421Z,46
2017-10-12T07:01:44.799Z,40
2017-10-12T07:02:47.177Z,43
2017-10-12T07:03:49.552Z,45
2017-10-12T07:04:51.935Z,46
2017-10-12T07:05:54.653Z,46
2017-10-12T07:06:57.031Z,43
2017-10-12T07:07:59.408Z,40
2017-10-12T07:09:01.787Z,40
2017-10-12T07:10:04.182Z,41
2017-10-12T07:11:06.546Z,47
2017-10-12T07:12:08.930Z,84
2017-10-12T07:13:11.300Z,114
2017-10-12T07:14:13.686Z,64
2017-10-12T07:15:16.065Z,61
2017-10-12T07:16:18.446Z,88
2017-10-12T07:17:20.817Z,49
2017-10-12T07:18:23.198Z,46
2017-10-12T07:19:25.572Z,42
2017-10-12T07:20:27.952Z,40
2017-10-12T07:21:30.701Z,39
2017-10-12T07:22:33.069Z,37
2017-10-12T07:23:35.799Z,44
2017-10-12T07:24:38.188Z,96
2017-10-12T07:25:40.906Z,56
2017-10-12T07:26:43.994Z,69
2017-10-12T07:27:46.375Z,159
2017-10-12T07:28:48.759Z,111
2017-10-12T07:29:51.141Z,193
2017-10-12T07:30:53.523Z,194
2017-10-12T07:31:55.889Z,199
2017-10-12T07:32:58.281Z,121
2017-10-12T07:34:01.014Z,194
2017-10-12T07:35:03.404Z,211
2017-10-12T07:36:05.787Z,235
2017-10-12T07:37:08.168Z,225
2017-10-12T07:38:10.548Z,204
2017-10-12T07:39:12.932Z,188
2017-10-12T07:40:15.305Z,152
2017-10-12T07:41:17.686Z,188
2017-10-12T07:42:20.062Z,205
2017-10-12T07:43:22.442Z,199
2017-10-12T07:44:24.818Z,226
2017-10-12T07:45:27.193Z,239
2017-10-12T07:46:29.580Z,234
2017-10-12T07:47:31.964Z,258
2017-10-12T07:48:34.339Z,259
2017-10-12T07:49:36.723Z,253
2017-10-12T07:50:39.092Z,242
2017-10-12T07:51:41.474Z,92
2017-10-12T07:52:43.862Z,104
2017-10-12T07:53:46.247Z,65
2017-10-12T07:54:48.623Z,70
2017-10-12T07:55:51.018Z,65
2017-10-12T07:56:53.391Z,65
2017-10-12T07:57:55.789Z,71
2017-10-12T07:58:58.165Z,71
2017-10-12T08:00:00.542Z,67
2017-10-12T08:01:03.280Z,56
2017-10-12T08:02:05.661Z,59
2017-10-12T08:03:08.053Z,75
2017-10-12T08:04:10.426Z,86
2017-10-12T08:05:13.152Z,256
2017-10-12T08:06:15.541Z,72
2017-10-12T08:07:18.256Z,201
2017-10-12T08:08:20.648Z,197
2017-10-12T08:09:23.388Z,88
2017-10-12T08:10:25.775Z,77
2017-10-12T08:11:28.155Z,112
2017-10-12T08:12:30.897Z,60
2017-10-12T08:13:33.271Z,41
2017-10-12T08:14:35.659Z,40
2017-10-12T08:15:38.388Z,141
2017-10-12T08:16:40.773Z,64
2017-10-12T08:17:43.161Z,82
2017-10-12T08:18:45.896Z,122
2017-10-12T08:19:48.279Z,76
2017-10-12T08:20:50.659Z,100
2017-10-12T08:21:53.038Z,218
2017-10-12T08:22:55.418Z,99
2017-10-12T08:23:57.793Z,91
2017-10-12T08:25:00.180Z,64
2017-10-12T08:26:02.553Z,51
2017-10-12T08:27:04.941Z,52
2017-10-12T08:28:07.314Z,56
2017-10-12T08:29:09.705Z,42
2017-10-12T08:30:12.086Z,37
2017-10-12T08:31:14.469Z,34
2017-10-12T08:32:17.192Z,41
2017-10-12T08:33:19.591Z,43
2017-10-12T08:34:21.968Z,49
2017-10-12T08:35:24.349Z,56
2017-10-12T08:36:26.723Z,61
2017-10-12T08:37:29.111Z,42
2017-10-12T08:38:31.486Z,49
2017-10-12T08:39:33.879Z,73
2017-10-12T08:40:36.256Z,61
2017-10-12T08:41:38.637Z,254
2017-10-12T08:42:41.026Z,79
2017-10-12T08:43:43.405Z,83
2017-10-12T08:44:45.787Z,77
2017-10-12T08:45:48.175Z,75
2017-10-12T08:46:50.552Z,72
2017-10-12T08:47:52.942Z,89
2017-10-12T08:48:55.321Z,139
2017-10-12T08:49:57.700Z,311
2017-10-12T08:51:00.077Z,316
2017-10-12T08:52:02.457Z,336
2017-10-12T08:53:04.847Z,288
2017-10-12T08:54:07.596Z,292
2017-10-12T08:55:09.973Z,277
2017-10-12T08:56:13.061Z,261
2017-10-12T08:57:15.452Z,279
2017-10-12T08:58:17.831Z,218
2017-10-12T08:59:20.219Z,334
2017-10-12T09:00:22.595Z,316
2017-10-12T09:01:24.984Z,265
2017-10-12T09:02:27.358Z,111
2017-10-12T09:03:29.740Z,280
2017-10-12T09:04:32.139Z,283
2017-10-12T09:05:34.517Z,292
2017-10-12T09:06:36.893Z,307
2017-10-12T09:07:39.276Z,209
2017-10-12T09:08:41.651Z,292
2017-10-12T09:09:44.036Z,273
2017-10-12T09:10:46.419Z,261
2017-10-12T09:11:48.793Z,298
2017-10-12T09:12:51.178Z,261
2017-10-12T09:13:53.918Z,287
2017-10-12T09:14:56.297Z,251
2017-10-12T09:15:58.676Z,240
2017-10-12T09:17:01.063Z,250
2017-10-12T09:18:03.447Z,285
2017-10-12T09:19:06.174Z,209
2017-10-12T09:20:08.566Z,145
2017-10-12T09:21:10.943Z,320
2017-10-12T09:22:13.339Z,327
2017-10-12T09:23:16.063Z,295
2017-10-12T09:24:18.444Z,228
2017-10-12T09:25:20.829Z,346
2017-10-12T09:26:23.215Z,318
2017-10-12T09:27:25.594Z,345
2017-10-12T09:28:27.978Z,306
2017-10-12T09:29:30.356Z,305
2017-10-12T09:30:33.094Z,354
2017-10-12T09:31:35.483Z,358
2017-10-12T09:32:38.218Z,352
2017-10-12T09:33:40.607Z,382
2017-10-12T09:34:42.990Z,325
2017-10-12T09:35:45.369Z,412
2017-10-12T09:36:47.761Z,240
2017-10-12T09:37:50.130Z,166
2017-10-12T09:38:52.520Z,149
2017-10-12T09:39:54.909Z,148
2017-10-12T09:40:57.294Z,143
2017-10-12T09:41:59.683Z,105
2017-10-12T09:43:02.063Z,258
2017-10-12T09:44:04.450Z,219
2017-10-12T09:45:06.841Z,109
2017-10-12T09:46:09.219Z,86
2017-10-12T09:47:11.606Z,90
2017-10-12T09:48:13.988Z,392
2017-10-12T09:49:16.362Z,154
2017-10-12T09:50:19.100Z,102
2017-10-12T09:51:21.480Z,119
2017-10-12T09:52:23.861Z,169
2017-10-12T09:53:26.597Z,293
2017-10-12T09:54:28.976Z,143
2017-10-12T09:55:31.360Z,282
2017-10-12T09:56:33.761Z,122
2017-10-12T09:57:36.135Z,107
2017-10-12T09:58:38.522Z,86
2017-10-12T09:59:40.896Z,113
2017-10-12T10:00:43.298Z,116
2017-10-12T10:01:45.663Z,157
2017-10-12T10:02:48.060Z,313
2017-10-12T10:03:50.447Z,174
2017-10-12T10:04:52.825Z,225
2017-10-12T10:05:55.565Z,400
2017-10-12T10:06:57.940Z,306
2017-10-12T10:08:00.320Z,348
2017-10-12T10:09:02.714Z,429
2017-10-12T10:10:05.089Z,431
2017-10-12T10:11:07.818Z,413
2017-10-12T10:12:10.194Z,283
2017-10-12T10:13:12.580Z,251
2017-10-12T10:14:14.961Z,438
2017-10-12T10:15:17.337Z,159
2017-10-12T10:16:19.724Z,321
2017-10-12T10:17:22.112Z,381
2017-10-12T10:18:24.836Z,101
2017-10-12T10:19:27.224Z,115
2017-10-12T10:20:29.608Z,349
2017-10-12T10:21:31.987Z,146
2017-10-12T10:22:34.382Z,387
2017-10-12T10:23:36.759Z,151
2017-10-12T10:24:39.141Z,142
2017-10-12T10:25:41.528Z,129
2017-10-12T10:26:43.915Z,371
2017-10-12T10:27:46.303Z,178
2017-10-12T10:28:48.688Z,151
2017-10-12T10:29:51.057Z,369
2017-10-12T10:30:53.446Z,354
2017-10-12T10:31:55.824Z,369
2017-10-12T10:32:58.572Z,374
2017-10-12T10:34:00.950Z,156
2017-10-12T10:35:03.718Z,114
2017-10-12T10:36:06.098Z,352
2017-10-12T10:37:08.471Z,337
2017-10-12T10:38:10.856Z,349
2017-10-12T10:39:13.238Z,144
2017-10-12T10:40:15.982Z,245
2017-10-12T10:41:18.372Z,271
2017-10-12T10:42:20.741Z,153
2017-10-12T10:43:23.473Z,158
2017-10-12T10:44:25.871Z,379
2017-10-12T10:45:28.596Z,399
2017-10-12T10:46:30.975Z,261
2017-10-12T10:47:33.361Z,254
2017-10-12T10:48:35.738Z,212
2017-10-12T10:49:38.126Z,213
2017-10-12T10:50:40.509Z,162
2017-10-12T10:51:42.892Z,119
2017-10-12T10:52:45.279Z,98
2017-10-12T10:53:47.663Z,79
2017-10-12T10:54:50.044Z,57
2017-10-12T10:55:52.438Z,59
2017-10-12T10:56:54.818Z,54
2017-10-12T10:57:57.199Z,57
2017-10-12T10:58:59.927Z,53
2017-10-12T11:00:02.314Z,46
2017-10-12T11:01:05.068Z,38
2017-10-12T11:02:07.812Z,36
2017-10-12T11:03:10.195Z,31
2017-10-12T11:04:12.577Z,34
2017-10-12T11:05:14.961Z,34
2017-10-12T11:06:17.701Z,34
2017-10-12T11:07:20.082Z,45
2017-10-12T11:08:22.451Z,66
2017-10-12T11:09:24.834Z,73
2017-10-12T11:10:27.224Z,72
2017-10-12T11:11:29.601Z,110
2017-10-12T11:12:31.990Z,127
2017-10-12T11:13:34.370Z,102
2017-10-12T11:14:37.112Z,104
2017-10-12T11:15:39.486Z,118
2017-10-12T11:16:41.872Z,100
2017-10-12T11:17:44.264Z,83
2017-10-12T11:18:46.640Z,78
2017-10-12T11:19:49.027Z,85
2017-10-12T11:20:51.406Z,80
2017-10-12T11:21:53.786Z,87
2017-10-12T11:22:56.161Z,101
2017-10-12T11:23:58.542Z,105
2017-10-12T11:25:00.926Z,94
2017-10-12T11:26:03.303Z,84
2017-10-12T11:27:05.690Z,72
2017-10-12T11:28:08.066Z,60
2017-10-12T11:29:10.455Z,50
2017-10-12T11:30:12.833Z,54
2017-10-12T11:31:15.212Z,65
2017-10-12T11:32:17.601Z,58
2017-10-12T11:33:19.982Z,59
2017-10-12T11:34:22.360Z,41
2017-10-12T11:35:24.749Z,35
2017-10-12T11:36:27.122Z,30
2017-10-12T11:37:29.868Z,28
2017-10-12T11:38:32.243Z,31
2017-10-12T11:39:34.623Z,59
2017-10-12T11:40:36.996Z,120
2017-10-12T11:41:39.734Z,164
2017-10-12T11:42:42.101Z,261
2017-10-12T11:43:44.475Z,420
2017-10-12T11:44:46.865Z,347
2017-10-12T11:45:49.233Z,348
2017-10-12T11:46:51.620Z,410
2017-10-12T11:47:54.000Z,415
2017-10-12T11:48:56.384Z,324
2017-10-12T11:49:58.758Z,211
2017-10-12T11:51:01.493Z,264
2017-10-12T11:52:03.866Z,281
2017-10-12T11:53:06.258Z,302
2017-10-12T11:54:08.637Z,174
2017-10-12T11:55:11.011Z,126
2017-10-12T11:56:13.397Z,99
2017-10-12T11:57:15.780Z,78
2017-10-12T11:58:18.168Z,71
2017-10-12T11:59:20.550Z,77
2017-10-12T12:00:22.942Z,72
2017-10-12T12:01:25.316Z,63
2017-10-12T12:02:27.691Z,52
2017-10-12T12:03:30.074Z,57
2017-10-12T12:04:32.462Z,67
2017-10-12T12:05:34.828Z,58
2017-10-12T12:06:37.212Z,61
2017-10-12T12:07:39.593Z,49
2017-10-12T12:08:41.973Z,48
2017-10-12T12:09:44.365Z,44
2017-10-12T12:10:47.087Z,52
2017-10-12T12:11:49.466Z,54
2017-10-12T12:12:51.847Z,57
2017-10-12T12:13:54.226Z,69
2017-10-12T12:14:56.614Z,65
2017-10-12T12:15:58.998Z,53
2017-10-12T12:17:01.362Z,46
2017-10-12T12:18:03.740Z,69
2017-10-12T12:19:06.131Z,200
2017-10-12T12:20:08.507Z,108
2017-10-12T12:21:10.888Z,88
2017-10-12T12:22:13.616Z,76
2017-10-12T12:23:16.341Z,78
2017-10-12T12:24:18.733Z,111
2017-10-12T12:25:21.120Z,221
2017-10-12T12:26:23.486Z,128
2017-10-12T12:27:25.873Z,101
2017-10-12T12:28:28.264Z,107
2017-10-12T12:29:30.638Z,119
2017-10-12T12:30:33.028Z,133
2017-10-12T12:31:35.407Z,206
2017-10-12T12:32:38.136Z,153
2017-10-12T12:33:40.510Z,156
2017-10-12T12:34:42.885Z,171
2017-10-12T12:35:45.273Z,271
2017-10-12T12:36:47.648Z,194
2017-10-12T12:37:50.025Z,175
2017-10-12T12:38:52.413Z,141
2017-10-12T12:39:54.789Z,102
2017-10-12T12:40:57.955Z,126
2017-10-12T12:42:00.336Z,161
2017-10-12T12:43:02.709Z,245
2017-10-12T12:44:05.095Z,293
2017-10-12T12:45:07.472Z,229
2017-10-12T12:46:09.855Z,235
2017-10-12T12:47:12.594Z,189
2017-10-12T12:48:14.976Z,143
2017-10-12T12:49:17.700Z,109
2017-10-12T12:50:20.102Z,245
2017-10-12T12:51:22.818Z,154
2017-10-12T12:52:25.209Z,249
2017-10-12T12:53:27.592Z,163
2017-10-12T12:54:29.972Z,170
2017-10-12T12:55:32.353Z,149
2017-10-12T12:56:34.735Z,266
2017-10-12T12:57:37.108Z,254
2017-10-12T12:58:39.502Z,209
2017-10-12T12:59:41.872Z,86
2017-10-12T13:00:44.258Z,56
2017-10-12T13:01:46.642Z,61
2017-10-12T13:02:49.033Z,63
2017-10-12T13:03:51.768Z,56
2017-10-12T13:04:54.155Z,65
2017-10-12T13:05:56.527Z,84
2017-10-12T13:06:58.917Z,108
2017-10-12T13:08:01.298Z,112
2017-10-12T13:09:03.670Z,109
2017-10-12T13:10:06.055Z,122
2017-10-12T13:11:08.797Z,111
2017-10-12T13:12:11.544Z,112
2017-10-12T13:13:13.925Z,92
2017-10-12T13:14:16.302Z,74
2017-10-12T13:15:19.036Z,63
2017-10-12T13:16:21.416Z,65
2017-10-12T13:17:23.798Z,71
2017-10-12T13:18:26.177Z,112
2017-10-12T13:19:28.560Z,125
2017-10-12T13:20:30.946Z,85
2017-10-12T13:21:33.340Z,82
2017-10-12T13:22:35.720Z,91
2017-10-12T13:23:38.092Z,121
2017-10-12T13:24:40.483Z,105
2017-10-12T13:25:42.860Z,186
2017-10-12T13:26:45.601Z,171
2017-10-12T13:28:07.233Z,156
2017-10-12T13:29:09.669Z,134
2017-10-12T13:30:12.134Z,153
2017-10-12T13:31:14.910Z,111
2017-10-12T13:32:17.334Z,77
2017-10-12T13:33:19.772Z,81
2017-10-12T13:34:22.207Z,157
2017-10-12T13:35:24.650Z,81
2017-10-12T13:36:27.090Z,66
2017-10-12T13:37:29.533Z,49
2017-10-12T13:38:32.322Z,40
2017-10-12T13:39:34.777Z,41
2017-10-12T13:40:37.588Z,43
2017-10-12T13:41:40.023Z,35
2017-10-12T13:42:42.465Z,32
2017-10-12T13:43:44.894Z,28
2017-10-12T13:44:47.334Z,31
2017-10-12T13:45:49.770Z,45
2017-10-12T13:46:52.218Z,69
2017-10-12T13:47:55.365Z,189
2017-10-12T13:48:57.796Z,101
2017-10-12T13:50:00.242Z,158
2017-10-12T13:51:02.668Z,214
2017-10-12T13:52:05.109Z,216
2017-10-12T13:53:07.540Z,137
2017-10-12T13:54:09.972Z,150
2017-10-12T13:55:12.399Z,149
2017-10-12T13:56:15.200Z,164
2017-10-12T13:57:17.661Z,184
2017-10-12T13:58:20.084Z,173
2017-10-12T13:59:22.527Z,171
2017-10-12T14:00:25.332Z,115
2017-10-12T14:01:27.760Z,111
2017-10-12T14:02:30.564Z,146
2017-10-12T14:03:33.004Z,120
2017-10-12T14:04:35.434Z,110
2017-10-12T14:05:37.874Z,99
2017-10-12T14:06:40.308Z,154
2017-10-12T14:07:42.749Z,88
2017-10-12T14:08:45.178Z,99
2017-10-12T14:09:47.613Z,89
2017-10-12T14:10:50.397Z,134
2017-10-12T14:11:53.209Z,128
2017-10-12T14:12:55.628Z,106
2017-10-12T14:13:58.087Z,76
2017-10-12T14:15:00.523Z,125
2017-10-12T14:16:02.982Z,81
2017-10-12T14:17:05.420Z,92
2017-10-12T14:18:07.859Z,109
2017-10-12T14:19:10.658Z,121
2017-10-12T14:20:13.088Z,112
2017-10-12T14:21:15.513Z,65
2017-10-12T14:22:17.952Z,54
2017-10-12T14:23:20.383Z,53
2017-10-12T14:24:22.828Z,53
2017-10-12T14:25:25.255Z,55
2017-10-12T14:26:27.707Z,53
2017-10-12T14:27:30.145Z,52
2017-10-12T14:28:32.945Z,53
2017-10-12T14:29:35.378Z,50
2017-10-12T14:30:37.822Z,52
2017-10-12T14:31:40.624Z,53
2017-10-12T14:32:43.055Z,53
2017-10-12T14:33:45.490Z,54
2017-10-12T14:34:47.934Z,53
2017-10-12T14:35:50.367Z,53
2017-10-12T14:36:52.807Z,53
2017-10-12T14:37:55.227Z,52
2017-10-12T14:38:57.667Z,48
2017-10-12T14:40:00.115Z,44
2017-10-12T14:41:02.548Z,42
2017-10-12T14:42:05.353Z,45
2017-10-12T14:43:08.150Z,50
2017-10-12T14:44:10.585Z,55
2017-10-12T14:45:13.018Z,55
2017-10-12T14:46:15.455Z,48
2017-10-12T14:47:17.873Z,46
2017-10-12T14:48:20.323Z,45
2017-10-12T14:49:22.763Z,46
2017-10-12T14:50:25.195Z,48
2017-10-12T14:51:27.632Z,48
2017-10-12T14:52:30.080Z,46
2017-10-12T14:53:32.507Z,40
2017-10-12T14:54:34.953Z,35